createdAt,value
2022-10-06T00:00:31.338Z,1019.70
2022-10-06T00:01:31.318Z,1019.72
2022-10-06T00:02:31.349Z,1019.75
2022-10-06T00:03:31.276Z,1019.73
2022-10-06T00:04:31.264Z,1019.73
2022-10-06T00:05:31.235Z,1019.79
2022-10-06T00:06:31.198Z,1019.82
2022-10-06T00:07:31.228Z,1019.81
2022-10-06T00:08:31.395Z,1019.81
2022-10-06T00:09:31.254Z,1019.82
2022-10-06T00:10:31.175Z,1019.88
2022-10-06T00:11:31.164Z,1019.93
2022-10-06T00:12:31.148Z,1019.94
2022-10-06T00:13:31.124Z,1020.03
2022-10-06T00:14:31.096Z,1020.05
2022-10-06T00:15:31.173Z,1020.02
2022-10-06T00:16:31.041Z,1020.00
2022-10-06T00:17:31.054Z,1020.04
2022-10-06T00:18:31.384Z,1020.12
2022-10-06T00:19:32.000Z,1020.12
2022-10-06T00:20:31.035Z,1020.14
2022-10-06T00:21:31.028Z,1020.16
2022-10-06T00:22:30.980Z,1020.14
2022-10-06T00:23:30.982Z,1020.18
2022-10-06T00:24:30.959Z,1020.20
2022-10-06T00:25:30.930Z,1020.21
2022-10-06T00:26:30.910Z,1020.22
2022-10-06T00:27:30.973Z,1020.21
2022-10-06T00:28:31.388Z,1020.27
2022-10-06T00:29:30.889Z,1020.26
2022-10-06T00:30:30.857Z,1020.32
2022-10-06T00:31:30.942Z,1020.33
2022-10-06T00:32:30.866Z,1020.31
2022-10-06T00:33:30.918Z,1020.30
2022-10-06T00:34:30.821Z,1020.32
2022-10-06T00:35:30.791Z,1020.33
2022-10-06T00:36:30.788Z,1020.39
2022-10-06T00:37:30.756Z,1020.42
2022-10-06T00:38:31.091Z,1020.42
2022-10-06T00:39:30.764Z,1020.45
2022-10-06T00:40:30.749Z,1020.49
2022-10-06T00:41:30.780Z,1020.47
2022-10-06T00:42:30.720Z,1020.45
2022-10-06T00:43:30.687Z,1020.47
2022-10-06T00:44:30.692Z,1020.51
2022-10-06T00:45:31.559Z,1020.54
2022-10-06T00:46:30.665Z,1020.54
2022-10-06T00:47:30.649Z,1020.58
2022-10-06T00:48:31.096Z,1020.55
2022-10-06T00:49:30.636Z,1020.55
2022-10-06T00:50:30.617Z,1020.54
2022-10-06T00:51:30.612Z,1020.55
2022-10-06T00:52:30.563Z,1020.58
2022-10-06T00:53:30.563Z,1020.64
2022-10-06T00:54:30.534Z,1020.72
2022-10-06T00:55:30.574Z,1020.68
2022-10-06T00:56:30.493Z,1020.71
2022-10-06T00:57:30.512Z,1020.72
2022-10-06T00:58:30.889Z,1020.71
2022-10-06T00:59:30.489Z,1020.69
2022-10-06T01:00:30.459Z,1020.69
2022-10-06T01:01:30.490Z,1020.76
2022-10-06T01:02:30.457Z,1020.77
2022-10-06T01:03:30.445Z,1020.81
2022-10-06T01:04:30.420Z,1020.83
2022-10-06T01:05:30.377Z,1020.86
2022-10-06T01:06:30.538Z,1020.85
2022-10-06T01:07:30.380Z,1020.84
2022-10-06T01:08:30.788Z,1020.83
2022-10-06T01:09:30.335Z,1020.86
2022-10-06T01:10:30.347Z,1020.88
2022-10-06T01:11:30.279Z,1020.88
2022-10-06T01:12:30.290Z,1020.95
2022-10-06T01:13:30.284Z,1020.95
2022-10-06T01:14:30.259Z,1020.96
2022-10-06T01:15:30.275Z,1020.99
2022-10-06T01:16:30.208Z,1020.96
2022-10-06T01:17:30.241Z,1020.95
2022-10-06T01:18:30.595Z,1021.01
2022-10-06T01:19:30.185Z,1020.93
2022-10-06T01:20:30.170Z,1021.00
2022-10-06T01:21:30.162Z,1021.01
2022-10-06T01:22:30.127Z,1021.04
2022-10-06T01:23:30.137Z,1021.09
2022-10-06T01:24:30.093Z,1021.07
2022-10-06T01:25:30.073Z,1021.11
2022-10-06T01:26:30.064Z,1021.13
2022-10-06T01:27:30.061Z,1021.14
2022-10-06T01:28:30.359Z,1021.12
2022-10-06T01:29:30.024Z,1021.17
2022-10-06T01:30:30.032Z,1021.18
2022-10-06T01:31:30.063Z,1021.15
2022-10-06T01:32:29.977Z,1021.21
2022-10-06T01:33:29.984Z,1021.16
2022-10-06T01:34:29.998Z,1021.21
2022-10-06T01:35:29.951Z,1021.22
2022-10-06T01:36:29.927Z,1021.19
2022-10-06T01:37:29.932Z,1021.22
2022-10-06T01:38:30.177Z,1021.27
2022-10-06T01:39:29.869Z,1021.29
2022-10-06T01:40:29.878Z,1021.27
2022-10-06T01:41:29.855Z,1021.26
2022-10-06T01:42:29.824Z,1021.27
2022-10-06T01:43:29.836Z,1021.28
2022-10-06T01:44:29.814Z,1021.32
2022-10-06T01:45:29.814Z,1021.30
2022-10-06T01:46:29.858Z,1021.36
2022-10-06T01:47:29.756Z,1021.36
2022-10-06T01:48:29.979Z,1021.39
2022-10-06T01:49:29.768Z,1021.41
2022-10-06T01:50:29.724Z,1021.41
2022-10-06T01:51:29.742Z,1021.46
2022-10-06T01:52:29.684Z,1021.34
2022-10-06T01:53:29.708Z,1021.40
2022-10-06T01:54:29.682Z,1021.40
2022-10-06T01:55:29.668Z,1021.41
2022-10-06T01:56:29.637Z,1021.45
2022-10-06T01:57:29.659Z,1021.44
2022-10-06T01:58:29.912Z,1021.45
2022-10-06T01:59:29.599Z,1021.39
2022-10-06T02:00:29.579Z,1021.41
2022-10-06T02:01:29.644Z,1021.43
2022-10-06T02:02:29.567Z,1021.42
2022-10-06T02:03:29.521Z,1021.41
2022-10-06T02:04:29.530Z,1021.45
2022-10-06T02:05:29.512Z,1021.47
2022-10-06T02:06:29.554Z,1021.54
2022-10-06T02:07:29.475Z,1021.55
2022-10-06T02:08:29.813Z,1021.58
2022-10-06T02:09:29.432Z,1021.54
2022-10-06T02:10:29.419Z,1021.57
2022-10-06T02:11:29.440Z,1021.63
2022-10-06T02:12:29.417Z,1021.62
2022-10-06T02:13:29.394Z,1021.64
2022-10-06T02:14:29.380Z,1021.68
2022-10-06T02:15:29.344Z,1021.73
2022-10-06T02:16:29.441Z,1021.69
2022-10-06T02:17:29.373Z,1021.68
2022-10-06T02:18:29.512Z,1021.69
2022-10-06T02:19:29.290Z,1021.70
2022-10-06T02:20:29.275Z,1021.77
2022-10-06T02:21:29.290Z,1021.80
2022-10-06T02:22:29.254Z,1021.84
2022-10-06T02:23:29.219Z,1021.83
2022-10-06T02:24:29.267Z,1021.83
2022-10-06T02:25:29.215Z,1021.86
2022-10-06T02:26:29.178Z,1021.86
2022-10-06T02:27:29.187Z,1021.91
2022-10-06T02:28:29.616Z,1021.91
2022-10-06T02:29:29.146Z,1021.95
2022-10-06T02:30:29.176Z,1021.99
2022-10-06T02:31:29.193Z,1021.99
2022-10-06T02:32:29.130Z,1021.93
2022-10-06T02:33:29.108Z,1021.91
2022-10-06T02:34:29.104Z,1021.98
2022-10-06T02:35:29.053Z,1021.96
2022-10-06T02:36:29.084Z,1021.97
2022-10-06T02:37:29.027Z,1022.02
2022-10-06T02:38:29.339Z,1022.04
2022-10-06T02:39:28.998Z,1022.06
2022-10-06T02:40:28.992Z,1022.09
2022-10-06T02:41:28.956Z,1022.08
2022-10-06T02:42:28.929Z,1022.14
2022-10-06T02:43:28.963Z,1022.16
2022-10-06T02:44:28.920Z,1022.19
2022-10-06T02:45:28.924Z,1022.16
2022-10-06T02:46:28.948Z,1022.20
2022-10-06T02:47:28.904Z,1022.24
2022-10-06T02:48:29.039Z,1022.25
2022-10-06T02:49:28.903Z,1022.28
2022-10-06T02:50:28.873Z,1022.24
2022-10-06T02:51:28.837Z,1022.29
2022-10-06T02:52:28.834Z,1022.30
2022-10-06T02:53:28.824Z,1022.30
2022-10-06T02:54:28.825Z,1022.30
2022-10-06T02:55:28.794Z,1022.36
2022-10-06T02:56:28.747Z,1022.39
2022-10-06T02:57:28.735Z,1022.43
2022-10-06T02:58:28.947Z,1022.47
2022-10-06T02:59:28.743Z,1022.48
2022-10-06T03:00:28.716Z,1022.47
2022-10-06T03:01:28.775Z,1022.42
2022-10-06T03:02:28.795Z,1022.42
2022-10-06T03:03:28.634Z,1022.48
2022-10-06T03:04:28.619Z,1022.47
2022-10-06T03:05:28.589Z,1022.51
2022-10-06T03:06:28.617Z,1022.53
2022-10-06T03:07:28.577Z,1022.60
2022-10-06T03:08:28.837Z,1022.60
2022-10-06T03:09:28.570Z,1022.70
2022-10-06T03:10:28.556Z,1022.61
2022-10-06T03:11:28.586Z,1022.64
2022-10-06T03:12:28.508Z,1022.71
2022-10-06T03:13:28.509Z,1022.63
2022-10-06T03:14:28.500Z,1022.66
2022-10-06T03:15:28.484Z,1022.67
2022-10-06T03:16:28.513Z,1022.68
2022-10-06T03:17:28.472Z,1022.70
2022-10-06T03:18:28.764Z,1022.72
2022-10-06T03:19:28.407Z,1022.75
2022-10-06T03:20:28.385Z,1022.80
2022-10-06T03:21:28.374Z,1022.81
2022-10-06T03:22:28.402Z,1022.82
2022-10-06T03:23:28.351Z,1022.82
2022-10-06T03:24:28.342Z,1022.86
2022-10-06T03:25:28.324Z,1022.90
2022-10-06T03:26:28.294Z,1022.86
2022-10-06T03:27:28.350Z,1022.92
2022-10-06T03:28:28.774Z,1022.91
2022-10-06T03:29:28.252Z,1022.93
2022-10-06T03:30:28.268Z,1022.89
2022-10-06T03:31:28.293Z,1022.95
2022-10-06T03:32:28.217Z,1022.93
2022-10-06T03:33:28.211Z,1022.95
2022-10-06T03:34:28.218Z,1022.99
2022-10-06T03:35:28.177Z,1022.98
2022-10-06T03:36:28.174Z,1022.99
2022-10-06T03:37:28.182Z,1023.02
2022-10-06T03:38:28.354Z,1023.05
2022-10-06T03:39:28.142Z,1023.06
2022-10-06T03:40:28.145Z,1023.11
2022-10-06T03:41:28.086Z,1023.10
2022-10-06T03:42:28.083Z,1023.14
2022-10-06T03:43:28.057Z,1023.18
2022-10-06T03:44:28.078Z,1023.19
2022-10-06T03:45:28.030Z,1023.19
2022-10-06T03:46:28.065Z,1023.20
2022-10-06T03:47:27.987Z,1023.19
2022-10-06T03:48:28.267Z,1023.26
2022-10-06T03:49:27.980Z,1023.20
2022-10-06T03:50:27.960Z,1023.22
2022-10-06T03:51:27.966Z,1023.25
2022-10-06T03:52:27.908Z,1023.28
2022-10-06T03:53:27.945Z,1023.28
2022-10-06T03:54:27.901Z,1023.34
2022-10-06T03:55:27.871Z,1023.40
2022-10-06T03:56:27.872Z,1023.41
2022-10-06T03:57:27.860Z,1023.38
2022-10-06T03:58:28.141Z,1023.41
2022-10-06T03:59:27.831Z,1023.44
2022-10-06T04:00:27.833Z,1023.47
2022-10-06T04:01:27.850Z,1023.44
2022-10-06T04:02:27.871Z,1023.48
2022-10-06T04:03:27.793Z,1023.46
2022-10-06T04:04:27.726Z,1023.49
2022-10-06T04:05:27.794Z,1023.47
2022-10-06T04:06:27.731Z,1023.60
2022-10-06T04:07:27.685Z,1023.58
2022-10-06T04:08:28.221Z,1023.62
2022-10-06T04:09:27.694Z,1023.62
2022-10-06T04:10:27.697Z,1023.64
2022-10-06T04:11:27.633Z,1023.63
2022-10-06T04:12:27.638Z,1023.61
2022-10-06T04:13:27.610Z,1023.64
2022-10-06T04:14:27.594Z,1023.60
2022-10-06T04:15:27.602Z,1023.63
2022-10-06T04:16:27.629Z,1023.61
2022-10-06T04:17:27.543Z,1023.64
2022-10-06T04:18:27.976Z,1023.67
2022-10-06T04:19:27.513Z,1023.69
2022-10-06T04:20:27.527Z,1023.72
2022-10-06T04:21:27.497Z,1023.76
2022-10-06T04:22:27.469Z,1023.83
2022-10-06T04:23:27.462Z,1023.82
2022-10-06T04:24:27.467Z,1023.84
2022-10-06T04:25:27.448Z,1023.84
2022-10-06T04:26:27.434Z,1023.82
2022-10-06T04:27:27.456Z,1023.82
2022-10-06T04:28:27.957Z,1023.84
2022-10-06T04:29:27.350Z,1023.81
2022-10-06T04:30:27.394Z,1023.84
2022-10-06T04:31:27.472Z,1023.79
2022-10-06T04:32:27.362Z,1023.98
2022-10-06T04:33:27.304Z,1023.99
2022-10-06T04:35:34.859Z,1024.00
2022-10-06T04:36:27.299Z,1024.04
2022-10-06T04:37:27.282Z,1023.99
2022-10-06T04:38:27.877Z,1024.05
2022-10-06T04:39:27.250Z,1024.08
2022-10-06T04:40:27.241Z,1024.06
2022-10-06T04:41:27.217Z,1024.09
2022-10-06T04:42:30.238Z,1024.10
2022-10-06T04:43:28.251Z,1024.08
2022-10-06T04:44:27.207Z,1024.10
2022-10-06T04:45:27.206Z,1024.19
2022-10-06T04:46:44.129Z,1024.19
2022-10-06T04:47:28.131Z,1024.19
2022-10-06T04:48:27.633Z,1024.24
2022-10-06T04:49:27.102Z,1024.21
2022-10-06T04:50:27.109Z,1024.25
2022-10-06T04:51:27.055Z,1024.33
2022-10-06T04:52:27.126Z,1024.32
2022-10-06T04:53:27.020Z,1024.36
2022-10-06T04:54:31.290Z,1024.42
2022-10-06T04:55:28.022Z,1024.39
2022-10-06T04:56:27.001Z,1024.43
2022-10-06T04:57:26.997Z,1024.43
2022-10-06T04:58:27.388Z,1024.44
2022-10-06T04:59:26.946Z,1024.51
2022-10-06T05:00:26.956Z,1024.50
2022-10-06T05:01:26.940Z,1024.52
2022-10-06T05:02:27.025Z,1024.52
2022-10-06T05:03:26.875Z,1024.56
2022-10-06T05:04:26.886Z,1024.56
2022-10-06T05:05:26.915Z,1024.60
2022-10-06T05:06:26.864Z,1024.58
2022-10-06T05:07:26.836Z,1024.60
2022-10-06T05:08:27.279Z,1024.57
2022-10-06T05:09:26.810Z,1024.61
2022-10-06T05:10:26.815Z,1024.61
2022-10-06T05:11:26.789Z,1024.62
2022-10-06T05:12:26.766Z,1024.63
2022-10-06T05:13:26.755Z,1024.66
2022-10-06T05:14:26.728Z,1024.69
2022-10-06T05:15:26.740Z,1024.71
2022-10-06T05:16:26.777Z,1024.67
2022-10-06T05:17:26.676Z,1024.73
2022-10-06T05:18:27.121Z,1024.73
2022-10-06T05:19:26.654Z,1024.81
2022-10-06T05:20:26.677Z,1024.77
2022-10-06T05:21:26.663Z,1024.81
2022-10-06T05:22:26.669Z,1024.83
2022-10-06T05:23:26.680Z,1024.87
2022-10-06T05:24:26.621Z,1024.90
2022-10-06T05:25:26.585Z,1024.90
2022-10-06T05:26:26.603Z,1024.90
2022-10-06T05:27:26.533Z,1024.90
2022-10-06T05:28:26.919Z,1024.89
2022-10-06T05:29:26.507Z,1024.86
2022-10-06T05:30:26.503Z,1024.88
2022-10-06T05:31:26.542Z,1024.92
2022-10-06T05:32:26.501Z,1024.95
2022-10-06T05:33:26.465Z,1024.93
2022-10-06T05:34:26.483Z,1024.99
2022-10-06T05:35:26.453Z,1025.04
2022-10-06T05:36:26.464Z,1025.03
2022-10-06T05:37:26.459Z,1025.04
2022-10-06T05:38:26.798Z,1025.07
2022-10-06T05:39:26.390Z,1025.14
2022-10-06T05:40:26.400Z,1025.14
2022-10-06T05:41:26.365Z,1025.12
2022-10-06T05:42:29.705Z,1025.15
2022-10-06T05:43:26.329Z,1025.16
2022-10-06T05:44:26.306Z,1025.16
2022-10-06T05:45:26.327Z,1025.19
2022-10-06T05:46:26.285Z,1025.23
2022-10-06T05:47:26.308Z,1025.22
2022-10-06T05:48:26.629Z,1025.24
2022-10-06T05:49:26.271Z,1025.27
2022-10-06T05:50:26.234Z,1025.28
2022-10-06T05:51:30.361Z,1025.30
2022-10-06T05:52:26.199Z,1025.33
2022-10-06T05:53:26.172Z,1025.34
2022-10-06T05:54:26.222Z,1025.34
2022-10-06T05:55:26.204Z,1025.39
2022-10-06T05:56:26.141Z,1025.44
2022-10-06T05:57:26.130Z,1025.44
2022-10-06T05:58:26.123Z,1025.45
2022-10-06T05:59:26.111Z,1025.44
2022-10-06T06:00:26.124Z,1025.49
2022-10-06T06:01:26.240Z,1025.46
2022-10-06T06:02:26.184Z,1025.43
2022-10-06T06:03:26.054Z,1025.50
2022-10-06T06:04:26.024Z,1025.51
2022-10-06T06:05:26.022Z,1025.51
2022-10-06T06:06:26.020Z,1025.56
2022-10-06T06:07:26.003Z,1025.56
2022-10-06T06:08:26.346Z,1025.54
2022-10-06T06:09:26.062Z,1025.57
2022-10-06T06:10:25.933Z,1025.59
2022-10-06T06:11:25.948Z,1025.63
2022-10-06T06:12:25.910Z,1025.60
2022-10-06T06:13:25.933Z,1025.64
2022-10-06T06:14:25.895Z,1025.68
2022-10-06T06:15:25.877Z,1025.66
2022-10-06T06:16:25.931Z,1025.67
2022-10-06T06:17:25.885Z,1025.70
2022-10-06T06:18:26.020Z,1025.69
2022-10-06T06:19:29.058Z,1025.68
2022-10-06T06:20:25.803Z,1025.67
2022-10-06T06:21:25.799Z,1025.68
2022-10-06T06:22:25.807Z,1025.69
2022-10-06T06:23:25.767Z,1025.71
2022-10-06T06:24:25.765Z,1025.77
2022-10-06T06:25:25.727Z,1025.80
2022-10-06T06:26:25.733Z,1025.83
2022-10-06T06:27:25.709Z,1025.87
2022-10-06T06:28:25.818Z,1025.88
2022-10-06T06:29:25.723Z,1025.93
2022-10-06T06:30:25.657Z,1025.92
2022-10-06T06:31:25.711Z,1025.93
2022-10-06T06:32:25.641Z,1025.95
2022-10-06T06:33:25.640Z,1025.95
2022-10-06T06:34:25.629Z,1025.93
2022-10-06T06:35:25.617Z,1025.94
2022-10-06T06:36:25.583Z,1025.94
2022-10-06T06:37:25.576Z,1025.97
2022-10-06T06:38:25.593Z,1025.93
2022-10-06T06:39:25.570Z,1026.01
2022-10-06T06:40:25.550Z,1026.03
2022-10-06T06:41:25.507Z,1026.04
2022-10-06T06:42:25.504Z,1026.07
2022-10-06T06:43:25.530Z,1026.04
2022-10-06T06:44:25.488Z,1026.08
2022-10-06T06:45:25.485Z,1026.07
2022-10-06T06:46:25.594Z,1026.11
2022-10-06T06:47:26.702Z,1026.15
2022-10-06T06:48:25.418Z,1026.21
2022-10-06T06:49:25.410Z,1026.22
2022-10-06T06:50:25.424Z,1026.26
2022-10-06T06:51:25.417Z,1026.27
2022-10-06T06:52:25.353Z,1026.31
2022-10-06T06:53:25.356Z,1026.30
2022-10-06T06:54:25.352Z,1026.27
2022-10-06T06:55:25.323Z,1026.30
2022-10-06T06:56:25.304Z,1026.34
2022-10-06T06:57:25.296Z,1026.37
2022-10-06T06:58:25.262Z,1026.36
2022-10-06T06:59:25.258Z,1026.37
2022-10-06T07:00:25.328Z,1026.38
2022-10-06T07:01:25.329Z,1026.40
2022-10-06T07:02:25.246Z,1026.40
2022-10-06T07:03:45.259Z,1026.44
2022-10-06T07:04:26.168Z,1026.45
2022-10-06T07:05:25.178Z,1026.45
2022-10-06T07:06:27.805Z,1026.46
2022-10-06T07:07:25.133Z,1026.47
2022-10-06T07:08:25.118Z,1026.46
2022-10-06T07:09:25.098Z,1026.45
2022-10-06T07:10:25.100Z,1026.48
2022-10-06T07:11:25.080Z,1026.50
2022-10-06T07:12:25.088Z,1026.52
2022-10-06T07:13:25.841Z,1026.51
2022-10-06T07:14:25.059Z,1026.50
2022-10-06T07:15:25.017Z,1026.53
2022-10-06T07:16:25.032Z,1026.54
2022-10-06T07:17:25.033Z,1026.57
2022-10-06T07:18:24.993Z,1026.56
2022-10-06T07:19:25.189Z,1026.59
2022-10-06T07:20:24.955Z,1026.62
2022-10-06T07:21:24.918Z,1026.65
2022-10-06T07:22:24.916Z,1026.64
2022-10-06T07:23:24.887Z,1026.67
2022-10-06T07:24:24.886Z,1026.72
2022-10-06T07:25:26.218Z,1026.72
2022-10-06T07:26:24.893Z,1026.71
2022-10-06T07:27:24.856Z,1026.69
2022-10-06T07:28:24.867Z,1026.75
2022-10-06T07:29:24.792Z,1026.76
2022-10-06T07:30:24.807Z,1026.78
2022-10-06T07:31:24.808Z,1026.85
2022-10-06T07:32:24.775Z,1026.84
2022-10-06T07:33:24.741Z,1026.86
2022-10-06T07:34:24.742Z,1026.86
2022-10-06T07:35:24.745Z,1026.90
2022-10-06T07:36:24.702Z,1026.90
2022-10-06T07:37:24.665Z,1026.95
2022-10-06T07:38:24.704Z,1026.96
2022-10-06T07:39:24.644Z,1026.97
2022-10-06T07:40:24.642Z,1026.99
2022-10-06T07:41:24.677Z,1027.03
2022-10-06T07:42:24.606Z,1026.99
2022-10-06T07:43:24.655Z,1027.07
2022-10-06T07:44:24.603Z,1027.06
2022-10-06T07:45:24.566Z,1027.07
2022-10-06T07:46:24.618Z,1027.07
2022-10-06T07:47:24.554Z,1027.08
2022-10-06T07:48:24.524Z,1027.05
2022-10-06T07:49:24.517Z,1027.07
2022-10-06T07:50:24.528Z,1027.11
2022-10-06T07:51:24.498Z,1027.08
2022-10-06T07:52:24.500Z,1027.15
2022-10-06T07:53:24.439Z,1027.12
2022-10-06T07:54:27.333Z,1027.16
2022-10-06T07:55:24.506Z,1027.19
2022-10-06T07:56:24.395Z,1027.16
2022-10-06T07:57:24.394Z,1027.21
2022-10-06T07:58:24.375Z,1027.26
2022-10-06T07:59:24.398Z,1027.24
2022-10-06T08:00:24.422Z,1027.24
2022-10-06T08:01:24.395Z,1027.30
2022-10-06T08:02:24.345Z,1027.26
2022-10-06T08:03:24.387Z,1027.32
2022-10-06T08:04:24.302Z,1027.35
2022-10-06T08:05:24.300Z,1027.37
2022-10-06T08:06:24.266Z,1027.36
2022-10-06T08:07:24.255Z,1027.38
2022-10-06T08:08:24.254Z,1027.38
2022-10-06T08:09:24.231Z,1027.39
2022-10-06T08:10:24.219Z,1027.40
2022-10-06T08:11:24.218Z,1027.35
2022-10-06T08:12:24.202Z,1027.37
2022-10-06T08:13:24.163Z,1027.39
2022-10-06T08:14:24.180Z,1027.40
2022-10-06T08:15:24.152Z,1027.38
2022-10-06T08:16:24.168Z,1027.38
2022-10-06T08:17:24.111Z,1027.36
2022-10-06T08:18:44.858Z,1027.42
2022-10-06T08:19:25.087Z,1027.45
2022-10-06T08:20:24.077Z,1027.47
2022-10-06T08:21:24.069Z,1027.40
2022-10-06T08:22:24.034Z,1027.43
2022-10-06T08:23:24.030Z,1027.42
2022-10-06T08:24:24.041Z,1027.45
2022-10-06T08:25:24.003Z,1027.48
2022-10-06T08:26:24.007Z,1027.45
2022-10-06T08:27:23.966Z,1027.50
2022-10-06T08:28:23.994Z,1027.53
2022-10-06T08:29:24.009Z,1027.62
2022-10-06T08:30:23.949Z,1027.53
2022-10-06T08:31:23.952Z,1027.62
2022-10-06T08:32:23.917Z,1027.59
2022-10-06T08:33:23.888Z,1027.63
2022-10-06T08:34:23.867Z,1027.66
2022-10-06T08:35:23.867Z,1027.57
2022-10-06T08:36:28.330Z,1027.62
2022-10-06T08:37:24.838Z,1027.62
2022-10-06T08:38:23.819Z,1027.61
2022-10-06T08:39:23.795Z,1027.63
2022-10-06T08:40:23.784Z,1027.65
2022-10-06T08:41:23.778Z,1027.73
2022-10-06T08:42:23.778Z,1027.67
2022-10-06T08:43:23.792Z,1027.73
2022-10-06T08:44:23.756Z,1027.73
2022-10-06T08:45:23.698Z,1027.71
2022-10-06T08:46:24.751Z,1027.71
2022-10-06T08:47:23.665Z,1027.70
2022-10-06T08:48:23.658Z,1027.77
2022-10-06T08:49:23.683Z,1027.72
2022-10-06T08:50:23.684Z,1027.76
2022-10-06T08:51:23.644Z,1027.75
2022-10-06T08:52:23.609Z,1027.77
2022-10-06T08:53:23.613Z,1027.78
2022-10-06T08:54:23.566Z,1027.72
2022-10-06T08:55:23.564Z,1027.74
2022-10-06T08:56:23.562Z,1027.75
2022-10-06T08:57:23.559Z,1027.79
2022-10-06T08:58:23.518Z,1027.77
2022-10-06T08:59:23.516Z,1027.74
2022-10-06T09:00:23.531Z,1027.74
2022-10-06T09:01:23.612Z,1027.79
2022-10-06T09:02:23.546Z,1027.77
2022-10-06T09:03:23.492Z,1027.77
2022-10-06T09:04:23.447Z,1027.79
2022-10-06T09:05:23.471Z,1027.79
2022-10-06T09:06:23.420Z,1027.80
2022-10-06T09:07:23.449Z,1027.81
2022-10-06T09:08:23.382Z,1027.87
2022-10-06T09:09:23.381Z,1027.88
2022-10-06T09:10:23.348Z,1027.95
2022-10-06T09:11:23.370Z,1027.90
2022-10-06T09:12:23.354Z,1027.92
2022-10-06T09:13:23.331Z,1027.92
2022-10-06T09:14:23.293Z,1027.94
2022-10-06T09:15:23.409Z,1027.94
2022-10-06T09:16:23.343Z,1027.98
2022-10-06T09:17:23.275Z,1027.98
2022-10-06T09:18:23.275Z,1028.01
2022-10-06T09:19:24.698Z,1028.03
2022-10-06T09:20:23.278Z,1028.04
2022-10-06T09:21:23.215Z,1028.05
2022-10-06T09:22:23.200Z,1028.05
2022-10-06T09:23:23.221Z,1028.04
2022-10-06T09:24:23.175Z,1028.10
2022-10-06T09:25:23.141Z,1028.17
2022-10-06T09:26:23.160Z,1028.10
2022-10-06T09:27:23.131Z,1028.14
2022-10-06T09:28:23.137Z,1028.14
2022-10-06T09:29:23.115Z,1028.15
2022-10-06T09:30:23.137Z,1028.18
2022-10-06T09:31:23.127Z,1028.19
2022-10-06T09:32:23.045Z,1028.13
2022-10-06T09:33:23.066Z,1028.19
2022-10-06T09:34:23.027Z,1028.18
2022-10-06T09:35:23.068Z,1028.24
2022-10-06T09:36:23.000Z,1028.21
2022-10-06T09:37:23.072Z,1028.28
2022-10-06T09:38:22.968Z,1028.23
2022-10-06T09:39:22.971Z,1028.22
2022-10-06T09:40:23.093Z,1028.28
2022-10-06T09:41:22.959Z,1028.27
2022-10-06T09:42:22.920Z,1028.27
2022-10-06T09:43:22.888Z,1028.31
2022-10-06T09:44:22.896Z,1028.31
2022-10-06T09:45:22.891Z,1028.31
2022-10-06T09:46:22.875Z,1028.31
2022-10-06T09:47:22.869Z,1028.30
2022-10-06T09:48:24.942Z,1028.39
2022-10-06T09:49:22.816Z,1028.39
2022-10-06T09:50:22.811Z,1028.34
2022-10-06T09:51:22.799Z,1028.38
2022-10-06T09:52:22.770Z,1028.37
2022-10-06T09:53:22.800Z,1028.38
2022-10-06T09:54:22.747Z,1028.37
2022-10-06T09:55:22.764Z,1028.39
2022-10-06T09:56:22.751Z,1028.35
2022-10-06T09:57:22.770Z,1028.32
2022-10-06T09:58:22.709Z,1028.41
2022-10-06T09:59:22.752Z,1028.40
2022-10-06T10:00:22.668Z,1028.37
2022-10-06T10:01:22.702Z,1028.30
2022-10-06T10:02:22.631Z,1028.32
2022-10-06T10:03:22.688Z,1028.36
2022-10-06T10:04:22.628Z,1028.26
2022-10-06T10:05:22.611Z,1028.26
2022-10-06T10:06:22.575Z,1028.28
2022-10-06T10:07:22.571Z,1028.28
2022-10-06T10:08:22.603Z,1028.29
2022-10-06T10:09:22.951Z,1028.29
2022-10-06T10:10:22.565Z,1028.36
2022-10-06T10:11:22.531Z,1028.31
2022-10-06T10:12:22.492Z,1028.36
2022-10-06T10:13:22.504Z,1028.33
2022-10-06T10:14:22.481Z,1028.43
2022-10-06T10:15:22.499Z,1028.41
2022-10-06T10:16:22.560Z,1028.47
2022-10-06T10:17:22.439Z,1028.46
2022-10-06T10:18:22.431Z,1028.45
2022-10-06T10:19:22.473Z,1028.37
2022-10-06T10:20:22.389Z,1028.33
2022-10-06T10:21:22.388Z,1028.37
2022-10-06T10:22:22.374Z,1028.41
2022-10-06T10:23:24.126Z,1028.42
2022-10-06T10:24:23.389Z,1028.49
2022-10-06T10:25:22.347Z,1028.46
2022-10-06T10:26:22.330Z,1028.44
2022-10-06T10:27:22.301Z,1028.40
2022-10-06T10:28:22.351Z,1028.33
2022-10-06T10:29:22.276Z,1028.38
2022-10-06T10:30:22.254Z,1028.38
2022-10-06T10:31:22.303Z,1028.41
2022-10-06T10:32:22.271Z,1028.45
2022-10-06T10:33:22.241Z,1028.38
2022-10-06T10:34:24.630Z,1028.38
2022-10-06T10:35:29.712Z,1028.34
2022-10-06T10:36:22.171Z,1028.31
2022-10-06T10:37:22.165Z,1028.29
2022-10-06T10:38:22.173Z,1028.32
2022-10-06T10:39:22.200Z,1028.38
2022-10-06T10:40:22.123Z,1028.35
2022-10-06T10:41:22.103Z,1028.41
2022-10-06T10:42:22.094Z,1028.40
2022-10-06T10:43:22.086Z,1028.40
2022-10-06T10:44:22.084Z,1028.41
2022-10-06T10:45:22.077Z,1028.41
2022-10-06T10:46:22.083Z,1028.41
2022-10-06T10:47:22.020Z,1028.45
2022-10-06T10:48:22.025Z,1028.40
2022-10-06T10:49:22.026Z,1028.42
2022-10-06T10:50:22.000Z,1028.44
2022-10-06T10:51:22.035Z,1028.47
2022-10-06T10:52:21.958Z,1028.47
2022-10-06T10:53:21.956Z,1028.46
2022-10-06T10:54:21.939Z,1028.45
2022-10-06T10:55:21.939Z,1028.45
2022-10-06T10:56:21.910Z,1028.45
2022-10-06T10:57:21.897Z,1028.48
2022-10-06T10:58:21.904Z,1028.50
2022-10-06T10:59:21.888Z,1028.48
2022-10-06T11:00:21.883Z,1028.45
2022-10-06T11:01:21.867Z,1028.45
2022-10-06T11:02:21.874Z,1028.48
2022-10-06T11:03:21.823Z,1028.48
2022-10-06T11:04:21.793Z,1028.49
2022-10-06T11:05:25.300Z,1028.46
2022-10-06T11:06:22.786Z,1028.49
2022-10-06T11:07:21.761Z,1028.40
2022-10-06T11:08:21.743Z,1028.37
2022-10-06T11:09:21.763Z,1028.45
2022-10-06T11:10:21.737Z,1028.41
2022-10-06T11:11:21.693Z,1028.43
2022-10-06T11:12:21.692Z,1028.40
2022-10-06T11:13:21.694Z,1028.40
2022-10-06T11:14:21.666Z,1028.38
2022-10-06T11:15:21.701Z,1028.39
2022-10-06T11:16:21.654Z,1028.40
2022-10-06T11:17:21.627Z,1028.42
2022-10-06T11:18:21.722Z,1028.42
2022-10-06T11:19:21.589Z,1028.38
2022-10-06T11:20:21.582Z,1028.39
2022-10-06T11:21:21.587Z,1028.40
2022-10-06T11:22:21.557Z,1028.42
2022-10-06T11:23:21.554Z,1028.45
2022-10-06T11:24:21.529Z,1028.44
2022-10-06T11:25:21.512Z,1028.42
2022-10-06T11:26:21.553Z,1028.43
2022-10-06T11:27:21.511Z,1028.46
2022-10-06T11:28:21.518Z,1028.44
2022-10-06T11:29:21.491Z,1028.44
2022-10-06T11:30:21.439Z,1028.46
2022-10-06T11:31:22.844Z,1028.41
2022-10-06T11:32:21.417Z,1028.38
2022-10-06T11:33:21.430Z,1028.42
2022-10-06T11:34:21.404Z,1028.40
2022-10-06T11:35:21.399Z,1028.45
2022-10-06T11:36:21.349Z,1028.45
2022-10-06T11:37:21.385Z,1028.44
2022-10-06T11:38:21.369Z,1028.41
2022-10-06T11:39:21.312Z,1028.40
2022-10-06T11:40:21.367Z,1028.52
2022-10-06T11:41:21.292Z,1028.50
2022-10-06T11:42:21.295Z,1028.47
2022-10-06T11:43:21.302Z,1028.40
2022-10-06T11:44:21.282Z,1028.49
2022-10-06T11:45:21.269Z,1028.44
2022-10-06T11:46:21.285Z,1028.45
2022-10-06T11:47:34.300Z,1028.45
2022-10-06T11:48:22.222Z,1028.47
2022-10-06T11:49:21.192Z,1028.49
2022-10-06T11:50:21.188Z,1028.50
2022-10-06T11:51:21.156Z,1028.49
2022-10-06T11:52:21.150Z,1028.45
2022-10-06T11:53:21.149Z,1028.45
2022-10-06T11:54:21.133Z,1028.42
2022-10-06T11:55:21.103Z,1028.45
2022-10-06T11:56:21.099Z,1028.45
2022-10-06T11:57:22.288Z,1028.48
2022-10-06T11:58:41.396Z,1028.45
2022-10-06T11:59:22.083Z,1028.39
2022-10-06T12:00:21.034Z,1028.39
2022-10-06T12:01:21.020Z,1028.39
2022-10-06T12:02:21.168Z,1028.28
2022-10-06T12:03:21.017Z,1028.32
2022-10-06T12:04:24.583Z,1028.34
2022-10-06T12:05:54.806Z,1028.30
2022-10-06T12:06:21.963Z,1028.29